sensor_id;sensor_type;location;lat;lon;timestamp;pressure;altitude;pressure_sealevel;temperature;humidity
26859;BME280;14429;48.346;16.338;2023-04-26T00:08:25;99496.78;;;16.18;53.53
26859;BME280;14429;48.346;16.338;2023-04-26T00:10:51;99493.13;;;16.10;51.62
26859;BME280;14429;48.346;16.338;2023-04-26T00:13:16;99507.72;;;15.80;52.17
26859;BME280;14429;48.346;16.338;2023-04-26T00:15:42;99507.59;;;15.72;47.54
26859;BME280;14429;48.346;16.338;2023-04-26T00:18:07;99504.16;;;16.07;50.09
26859;BME280;14429;48.346;16.338;2023-04-26T00:20:33;99503.91;;;16.10;51.32
26859;BME280;14429;48.346;16.338;2023-04-26T00:22:58;99509.06;;;16.40;52.62
26859;BME280;14429;48.346;16.338;2023-04-26T00:25:25;99511.25;;;15.99;50.52
26859;BME280;14429;48.346;16.338;2023-04-26T00:27:51;99508.13;;;16.22;52.84
26859;BME280;14429;48.346;16.338;2023-04-26T00:30:16;99501.34;;;16.18;50.58
26859;BME280;14429;48.346;16.338;2023-04-26T00:32:42;99512.06;;;16.37;52.42
26859;BME280;14429;48.346;16.338;2023-04-26T00:35:08;99517.94;;;16.49;52.27
26859;BME280;14429;48.346;16.338;2023-04-26T00:37:34;99514.41;;;16.58;52.30
26859;BME280;14429;48.346;16.338;2023-04-26T00:39:59;99509.16;;;16.57;52.00
26859;BME280;14429;48.346;16.338;2023-04-26T00:42:27;99518.31;;;16.28;50.77
26859;BME280;14429;48.346;16.338;2023-04-26T00:44:52;99519.44;;;16.35;52.14
26859;BME280;14429;48.346;16.338;2023-04-26T00:47:18;99514.63;;;16.29;50.80
26859;BME280;14429;48.346;16.338;2023-04-26T00:49:43;99508.13;;;16.22;52.31
26859;BME280;14429;48.346;16.338;2023-04-26T00:52:09;99511.25;;;16.18;52.47
26859;BME280;14429;48.346;16.338;2023-04-26T00:54:35;99509.81;;;16.32;52.08
26859;BME280;14429;48.346;16.338;2023-04-26T00:57:01;99510.13;;;16.20;50.83
26859;BME280;14429;48.346;16.338;2023-04-26T00:59:28;99508.41;;;16.19;52.43
26859;BME280;14429;48.346;16.338;2023-04-26T01:01:54;99508.41;;;16.19;52.27
26859;BME280;14429;48.346;16.338;2023-04-26T01:04:19;99509.13;;;16.21;52.30
26859;BME280;14429;48.346;16.338;2023-04-26T01:06:45;99511.25;;;15.71;47.19
26859;BME280;14429;48.346;16.338;2023-04-26T01:09:11;99519.47;;;16.16;52.69
26859;BME280;14429;48.346;16.338;2023-04-26T01:11:37;99506.94;;;16.34;52.51
26859;BME280;14429;48.346;16.338;2023-04-26T01:14:04;99521.41;;;16.33;52.31
26859;BME280;14429;48.346;16.338;2023-04-26T01:16:31;99514.38;;;16.13;51.72
26859;BME280;14429;48.346;16.338;2023-04-26T01:18:57;99514.94;;;16.17;51.40
26859;BME280;14429;48.346;16.338;2023-04-26T01:21:23;99519.44;;;16.07;52.87
26859;BME280;14429;48.346;16.338;2023-04-26T01:23:50;99516.47;;;15.63;48.18
26859;BME280;14429;48.346;16.338;2023-04-26T01:26:16;99520.56;;;16.04;52.61
26859;BME280;14429;48.346;16.338;2023-04-26T01:28:42;99533.31;;;15.93;51.78
26859;BME280;14429;48.346;16.338;2023-04-26T01:31:07;99535.63;;;16.16;52.66
26859;BME280;14429;48.346;16.338;2023-04-26T01:33:33;99536.84;;;16.31;52.43
26859;BME280;14429;48.346;16.338;2023-04-26T01:35:58;99538.13;;;16.27;52.13
26859;BME280;14429;48.346;16.338;2023-04-26T01:38:24;99537.31;;;16.17;52.33
26859;BME280;14429;48.346;16.338;2023-04-26T01:40:51;99540.56;;;16.11;51.02
26859;BME280;14429;48.346;16.338;2023-04-26T01:43:16;99540.13;;;16.06;47.98
26859;BME280;14429;48.346;16.338;2023-04-26T01:45:45;99549.19;;;16.24;52.34
26859;BME280;14429;48.346;16.338;2023-04-26T01:48:10;99548.47;;;15.85;50.71
26859;BME280;14429;48.346;16.338;2023-04-26T01:50:36;99552.03;;;16.13;52.58
26859;BME280;14429;48.346;16.338;2023-04-26T01:53:01;99556.25;;;16.16;50.64
26859;BME280;14429;48.346;16.338;2023-04-26T01:55:27;99557.25;;;16.05;50.09
26859;BME280;14429;48.346;16.338;2023-04-26T01:57:53;99550.59;;;15.91;51.36
26859;BME280;14429;48.346;16.338;2023-04-26T02:00:19;99550.75;;;16.17;52.47
26859;BME280;14429;48.346;16.338;2023-04-26T02:02:44;99545.50;;;15.69;47.03
26859;BME280;14429;48.346;16.338;2023-04-26T02:05:10;99546.63;;;16.04;52.62
26859;BME280;14429;48.346;16.338;2023-04-26T02:07:35;99560.81;;;16.15;52.47
26859;BME280;14429;48.346;16.338;2023-04-26T02:10:01;99562.78;;;16.22;52.15
26859;BME280;14429;48.346;16.338;2023-04-26T02:12:26;99567.03;;;16.25;52.23
26859;BME280;14429;48.346;16.338;2023-04-26T02:14:53;99569.59;;;16.17;51.90
26859;BME280;14429;48.346;16.338;2023-04-26T02:17:18;99569.00;;;16.23;52.09
26859;BME280;14429;48.346;16.338;2023-04-26T02:19:44;99561.66;;;16.25;52.13
26859;BME280;14429;48.346;16.338;2023-04-26T02:22:09;99561.94;;;16.31;52.00
26859;BME280;14429;48.346;16.338;2023-04-26T02:24:35;99554.72;;;16.32;51.96
26859;BME280;14429;48.346;16.338;2023-04-26T02:27:00;99562.78;;;16.32;51.72
26859;BME280;14429;48.346;16.338;2023-04-26T02:29:25;99560.22;;;16.02;50.89
26859;BME280;14429;48.346;16.338;2023-04-26T02:31:52;99561.09;;;16.12;51.95
26859;BME280;14429;48.346;16.338;2023-04-26T02:34:18;99563.66;;;16.14;52.22
26859;BME280;14429;48.346;16.338;2023-04-26T02:36:43;99562.22;;;16.19;51.95
26859;BME280;14429;48.346;16.338;2023-04-26T02:39:09;99554.59;;;16.24;51.89
26859;BME280;14429;48.346;16.338;2023-04-26T02:41:34;99556.56;;;16.22;51.82
26859;BME280;14429;48.346;16.338;2023-04-26T02:43:59;99556.56;;;16.22;51.97
26859;BME280;14429;48.346;16.338;2023-04-26T02:46:25;99554.44;;;16.25;51.83
26859;BME280;14429;48.346;16.338;2023-04-26T02:48:52;99556.13;;;16.26;51.84
26859;BME280;14429;48.346;16.338;2023-04-26T02:51:17;99555.56;;;16.23;51.70
26859;BME280;14429;48.346;16.338;2023-04-26T02:53:43;99554.88;;;16.21;51.58
26859;BME280;14429;48.346;16.338;2023-04-26T02:56:08;99546.91;;;16.19;51.57
26859;BME280;14429;48.346;16.338;2023-04-26T02:58:33;99560.25;;;16.21;51.68
26859;BME280;14429;48.346;16.338;2023-04-26T03:00:59;99556.72;;;16.20;51.86
26859;BME280;14429;48.346;16.338;2023-04-26T03:03:24;99562.91;;;16.02;51.46
26859;BME280;14429;48.346;16.338;2023-04-26T03:05:51;99559.09;;;15.95;51.52
26859;BME280;14429;48.346;16.338;2023-04-26T03:08:17;99571.84;;;16.12;51.85
26859;BME280;14429;48.346;16.338;2023-04-26T03:10:43;99566.72;;;16.00;51.99
26859;BME280;14429;48.346;16.338;2023-04-26T03:13:10;99575.75;;;15.71;52.67
26859;BME280;14429;48.346;16.338;2023-04-26T03:15:35;99570.94;;;15.46;49.61
26859;BME280;14429;48.346;16.338;2023-04-26T03:18:00;99573.81;;;15.73;52.19
26859;BME280;14429;48.346;16.338;2023-04-26T03:20:26;99564.47;;;15.77;52.64
26859;BME280;14429;48.346;16.338;2023-04-26T03:22:53;99575.50;;;15.92;52.50
26859;BME280;14429;48.346;16.338;2023-04-26T03:25:18;99572.66;;;15.57;50.02
26859;BME280;14429;48.346;16.338;2023-04-26T03:27:44;99568.97;;;15.86;52.37
26859;BME280;14429;48.346;16.338;2023-04-26T03:30:10;99563.91;;;15.92;52.31
26859;BME280;14429;48.346;16.338;2023-04-26T03:32:35;99567.00;;;15.97;52.08
26859;BME280;14429;48.346;16.338;2023-04-26T03:35:01;99572.94;;;16.00;51.95
26859;BME280;14429;48.346;16.338;2023-04-26T03:37:26;99579.34;;;15.99;51.86
26859;BME280;14429;48.346;16.338;2023-04-26T03:39:53;99581.75;;;16.02;52.06
26859;BME280;14429;48.346;16.338;2023-04-26T03:42:19;99586.53;;;16.08;51.83
26859;BME280;14429;48.346;16.338;2023-04-26T03:44:44;99592.66;;;15.91;51.36
26859;BME280;14429;48.346;16.338;2023-04-26T03:47:10;99582.72;;;15.64;45.72
26859;BME280;14429;48.346;16.338;2023-04-26T03:49:35;99592.50;;;15.84;52.00
26859;BME280;14429;48.346;16.338;2023-04-26T03:52:00;99594.06;;;15.95;51.93
26859;BME280;14429;48.346;16.338;2023-04-26T03:54:26;99600.69;;;16.01;51.93
26859;BME280;14429;48.346;16.338;2023-04-26T03:56:53;99595.63;;;15.98;51.87
26859;BME280;14429;48.346;16.338;2023-04-26T03:59:20;99596.19;;;16.01;51.59
26859;BME280;14429;48.346;16.338;2023-04-26T04:01:46;99595.88;;;16.04;51.74
26859;BME280;14429;48.346;16.338;2023-04-26T04:04:11;99600.56;;;16.02;51.62
26859;BME280;14429;48.346;16.338;2023-04-26T04:06:37;99598.88;;;15.83;49.96
26859;BME280;14429;48.346;16.338;2023-04-26T04:09:02;99605.22;;;16.00;51.79
26859;BME280;14429;48.346;16.338;2023-04-26T04:11:28;99601.00;;;16.07;51.54
26859;BME280;14429;48.346;16.338;2023-04-26T04:13:54;99615.44;;;16.06;51.52
26859;BME280;14429;48.346;16.338;2023-04-26T04:16:20;99612.75;;;16.06;51.35
26859;BME280;14429;48.346;16.338;2023-04-26T04:18:45;99611.06;;;16.05;51.37
26859;BME280;14429;48.346;16.338;2023-04-26T04:21:10;99617.16;;;15.98;51.64
26859;BME280;14429;48.346;16.338;2023-04-26T04:23:37;99616.00;;;16.00;51.47
26859;BME280;14429;48.346;16.338;2023-04-26T04:26:02;99623.38;;;15.98;51.52
26859;BME280;14429;48.346;16.338;2023-04-26T04:28:28;99618.00;;;15.98;51.59
26859;BME280;14429;48.346;16.338;2023-04-26T04:30:55;99620.09;;;15.95;51.74
26859;BME280;14429;48.346;16.338;2023-04-26T04:33:20;99626.59;;;15.92;51.71
26859;BME280;14429;48.346;16.338;2023-04-26T04:35:45;99624.22;;;15.99;51.38
26859;BME280;14429;48.346;16.338;2023-04-26T04:38:11;99623.28;;;16.09;51.27
26859;BME280;14429;48.346;16.338;2023-04-26T04:40:36;99621.44;;;16.10;51.09
26859;BME280;14429;48.346;16.338;2023-04-26T04:43:02;99630.47;;;16.09;51.11
26859;BME280;14429;48.346;16.338;2023-04-26T04:45:27;99631.00;;;16.03;51.10
26859;BME280;14429;48.346;16.338;2023-04-26T04:47:54;99629.88;;;15.96;51.26
26859;BME280;14429;48.346;16.338;2023-04-26T04:50:20;99640.09;;;16.02;51.31
26859;BME280;14429;48.346;16.338;2023-04-26T04:52:45;99644.31;;;16.04;51.01
26859;BME280;14429;48.346;16.338;2023-04-26T04:55:11;99642.09;;;16.09;50.87
26859;BME280;14429;48.346;16.338;2023-04-26T04:57:36;99639.25;;;16.11;50.79
26859;BME280;14429;48.346;16.338;2023-04-26T05:00:02;99641.34;;;16.07;51.04
26859;BME280;14429;48.346;16.338;2023-04-26T05:02:27;99637.81;;;16.07;50.94
26859;BME280;14429;48.346;16.338;2023-04-26T05:04:54;99643.19;;;16.07;50.72
26859;BME280;14429;48.346;16.338;2023-04-26T05:07:20;99647.31;;;16.01;51.07
26859;BME280;14429;48.346;16.338;2023-04-26T05:09:45;99653.66;;;16.00;50.93
26859;BME280;14429;48.346;16.338;2023-04-26T05:12:10;99647.41;;;16.00;51.01
26859;BME280;14429;48.346;16.338;2023-04-26T05:14:36;99651.97;;;15.99;50.99
26859;BME280;14429;48.346;16.338;2023-04-26T05:17:01;99650.28;;;15.98;50.92
26859;BME280;14429;48.346;16.338;2023-04-26T05:19:27;99649.28;;;15.99;50.95
26859;BME280;14429;48.346;16.338;2023-04-26T05:21:55;99649.00;;;16.02;51.07
26859;BME280;14429;48.346;16.338;2023-04-26T05:24:20;99655.06;;;16.04;50.57
26859;BME280;14429;48.346;16.338;2023-04-26T05:26:46;99659.31;;;15.97;50.66
26859;BME280;14429;48.346;16.338;2023-04-26T05:29:11;99655.38;;;16.01;50.51
26859;BME280;14429;48.346;16.338;2023-04-26T05:31:36;99649.41;;;16.07;50.50
26859;BME280;14429;48.346;16.338;2023-04-26T05:34:02;99660.19;;;16.07;50.47
26859;BME280;14429;48.346;16.338;2023-04-26T05:36:27;99667.25;;;16.08;50.55
26859;BME280;14429;48.346;16.338;2023-04-26T05:38:54;99670.09;;;16.07;50.48
26859;BME280;14429;48.346;16.338;2023-04-26T05:41:19;99668.13;;;16.09;50.30
26859;BME280;14429;48.346;16.338;2023-04-26T05:43:45;99669.38;;;16.05;50.46
26859;BME280;14429;48.346;16.338;2023-04-26T05:46:11;99672.94;;;16.05;50.26
26859;BME280;14429;48.346;16.338;2023-04-26T05:48:36;99677.88;;;15.52;46.33
26859;BME280;14429;48.346;16.338;2023-04-26T05:51:02;99684.72;;;15.75;48.07
26859;BME280;14429;48.346;16.338;2023-04-26T05:53:27;99685.94;;;15.91;46.57
26859;BME280;14429;48.346;16.338;2023-04-26T05:55:54;99677.13;;;15.80;40.92
26859;BME280;14429;48.346;16.338;2023-04-26T05:58:20;99682.88;;;16.14;47.88
26859;BME280;14429;48.346;16.338;2023-04-26T06:00:45;99684.44;;;16.26;40.55
26859;BME280;14429;48.346;16.338;2023-04-26T06:03:10;99692.50;;;16.26;39.17
26859;BME280;14429;48.346;16.338;2023-04-26T06:05:36;99698.88;;;16.25;48.40
26859;BME280;14429;48.346;16.338;2023-04-26T06:08:01;99698.63;;;16.28;49.10
26859;BME280;14429;48.346;16.338;2023-04-26T06:10:27;99699.53;;;16.08;40.11
26859;BME280;14429;48.346;16.338;2023-04-26T06:12:54;99694.41;;;15.87;38.83
26859;BME280;14429;48.346;16.338;2023-04-26T06:15:19;99707.66;;;15.79;39.53
26859;BME280;14429;48.346;16.338;2023-04-26T06:17:45;99717.44;;;16.18;48.48
26859;BME280;14429;48.346;16.338;2023-04-26T06:20:11;99708.66;;;16.26;48.35
26859;BME280;14429;48.346;16.338;2023-04-26T06:22:36;99710.66;;;16.24;49.10
26859;BME280;14429;48.346;16.338;2023-04-26T06:25:03;99715.16;;;16.23;48.81
26859;BME280;14429;48.346;16.338;2023-04-26T06:27:29;99716.50;;;15.90;45.20
26859;BME280;14429;48.346;16.338;2023-04-26T06:29:56;99716.28;;;16.12;48.64
26859;BME280;14429;48.346;16.338;2023-04-26T06:32:22;99719.69;;;15.75;40.97
26859;BME280;14429;48.346;16.338;2023-04-26T06:34:47;99726.00;;;16.03;48.11
26859;BME280;14429;48.346;16.338;2023-04-26T06:37:13;99722.31;;;15.56;43.20
26859;BME280;14429;48.346;16.338;2023-04-26T06:39:38;99722.97;;;15.78;48.48
26859;BME280;14429;48.346;16.338;2023-04-26T06:42:04;99721.25;;;15.68;47.91
26859;BME280;14429;48.346;16.338;2023-04-26T06:44:30;99716.84;;;15.67;42.21
26859;BME280;14429;48.346;16.338;2023-04-26T06:46:57;99721.91;;;15.99;48.74
26859;BME280;14429;48.346;16.338;2023-04-26T06:49:23;99725.38;;;16.20;48.92
26859;BME280;14429;48.346;16.338;2023-04-26T06:51:48;99729.72;;;16.12;48.44
26859;BME280;14429;48.346;16.338;2023-04-26T06:54:14;99733.41;;;16.11;47.72
26859;BME280;14429;48.346;16.338;2023-04-26T06:56:39;99734.50;;;15.60;39.54
26859;BME280;14429;48.346;16.338;2023-04-26T06:59:06;99726.34;;;15.41;45.59
26859;BME280;14429;48.346;16.338;2023-04-26T07:01:32;99728.38;;;15.88;48.97
26859;BME280;14429;48.346;16.338;2023-04-26T07:03:59;99729.03;;;15.41;41.35
26859;BME280;14429;48.346;16.338;2023-04-26T07:06:25;99736.22;;;15.61;48.26
26859;BME280;14429;48.346;16.338;2023-04-26T07:08:51;99733.59;;;15.01;41.57
26859;BME280;14429;48.346;16.338;2023-04-26T07:11:16;99737.91;;;15.33;49.22
26859;BME280;14429;48.346;16.338;2023-04-26T07:13:42;99735.78;;;15.27;43.38
26859;BME280;14429;48.346;16.338;2023-04-26T07:16:07;99727.59;;;15.37;40.42
26859;BME280;14429;48.346;16.338;2023-04-26T07:18:33;99724.03;;;15.57;46.47
26859;BME280;14429;48.346;16.338;2023-04-26T07:21:00;99728.78;;;15.44;39.41
26859;BME280;14429;48.346;16.338;2023-04-26T07:23:25;99734.81;;;15.66;44.68
26859;BME280;14429;48.346;16.338;2023-04-26T07:25:50;99735.31;;;15.51;46.22
26859;BME280;14429;48.346;16.338;2023-04-26T07:28:16;99736.03;;;15.24;39.80
26859;BME280;14429;48.346;16.338;2023-04-26T07:30:42;99739.50;;;15.44;45.42
26859;BME280;14429;48.346;16.338;2023-04-26T07:33:07;99740.25;;;15.85;43.87
26859;BME280;14429;48.346;16.338;2023-04-26T07:35:33;99734.59;;;15.20;38.12
26859;BME280;14429;48.346;16.338;2023-04-26T07:37:59;99737.31;;;15.49;46.34
26859;BME280;14429;48.346;16.338;2023-04-26T07:40:25;99739.13;;;15.88;47.09
26859;BME280;14429;48.346;16.338;2023-04-26T07:42:52;99731.34;;;15.46;45.14
26859;BME280;14429;48.346;16.338;2023-04-26T07:45:17;99741.50;;;15.42;37.06
26859;BME280;14429;48.346;16.338;2023-04-26T07:47:43;99745.03;;;15.82;46.72
26859;BME280;14429;48.346;16.338;2023-04-26T07:50:09;99743.69;;;15.96;41.52
26859;BME280;14429;48.346;16.338;2023-04-26T07:52:35;99743.84;;;16.04;44.83
26859;BME280;14429;48.346;16.338;2023-04-26T07:55:01;99739.31;;;16.05;43.94
26859;BME280;14429;48.346;16.338;2023-04-26T07:57:27;99741.81;;;16.17;46.46
26859;BME280;14429;48.346;16.338;2023-04-26T07:59:52;99740.94;;;16.26;46.92
26859;BME280;14429;48.346;16.338;2023-04-26T08:02:18;99747.09;;;15.98;42.35
26859;BME280;14429;48.346;16.338;2023-04-26T08:04:46;99752.69;;;16.16;46.76
26859;BME280;14429;48.346;16.338;2023-04-26T08:07:12;99739.72;;;16.00;40.63
26859;BME280;14429;48.346;16.338;2023-04-26T08:09:37;99741.16;;;16.04;46.13
26859;BME280;14429;48.346;16.338;2023-04-26T08:12:05;99749.13;;;16.15;46.77
26859;BME280;14429;48.346;16.338;2023-04-26T08:14:31;99749.56;;;15.72;40.43
26859;BME280;14429;48.346;16.338;2023-04-26T08:16:56;99744.84;;;16.03;47.19
26859;BME280;14429;48.346;16.338;2023-04-26T08:19:21;99744.41;;;16.08;46.92
26859;BME280;14429;48.346;16.338;2023-04-26T08:21:47;99745.69;;;16.04;40.39
26859;BME280;14429;48.346;16.338;2023-04-26T08:24:12;99749.09;;;16.06;40.84
26859;BME280;14429;48.346;16.338;2023-04-26T08:26:38;99744.94;;;15.92;46.41
26859;BME280;14429;48.346;16.338;2023-04-26T08:29:04;99738.88;;;15.91;41.87
26859;BME280;14429;48.346;16.338;2023-04-26T08:31:30;99745.25;;;15.60;44.97
26859;BME280;14429;48.346;16.338;2023-04-26T08:33:55;99752.78;;;15.66;46.82
26859;BME280;14429;48.346;16.338;2023-04-26T08:36:21;99754.94;;;15.72;44.54
26859;BME280;14429;48.346;16.338;2023-04-26T08:38:46;99756.84;;;15.11;40.51
26859;BME280;14429;48.346;16.338;2023-04-26T08:41:12;99747.72;;;15.03;41.19
26859;BME280;14429;48.346;16.338;2023-04-26T08:43:38;99749.97;;;15.18;46.52
26859;BME280;14429;48.346;16.338;2023-04-26T08:46:06;99757.72;;;15.32;47.65
26859;BME280;14429;48.346;16.338;2023-04-26T08:48:35;99749.25;;;15.75;48.29
26859;BME280;14429;48.346;16.338;2023-04-26T08:51:02;99752.41;;;15.80;45.53
26859;BME280;14429;48.346;16.338;2023-04-26T08:53:28;99747.56;;;15.64;36.61
26859;BME280;14429;48.346;16.338;2023-04-26T08:55:56;99749.56;;;15.22;40.92
26859;BME280;14429;48.346;16.338;2023-04-26T08:58:22;99747.72;;;15.03;43.64
26859;BME280;14429;48.346;16.338;2023-04-26T09:00:48;99761.38;;;15.31;45.51
26859;BME280;14429;48.346;16.338;2023-04-26T09:03:15;99758.84;;;15.09;37.85
26859;BME280;14429;48.346;16.338;2023-04-26T09:05:41;99754.56;;;14.86;41.85
26859;BME280;14429;48.346;16.338;2023-04-26T09:08:07;99762.66;;;14.96;39.95
26859;BME280;14429;48.346;16.338;2023-04-26T09:10:33;99764.91;;;15.11;47.90
26859;BME280;14429;48.346;16.338;2023-04-26T09:12:58;99763.44;;;15.47;48.36
26859;BME280;14429;48.346;16.338;2023-04-26T09:15:24;99758.84;;;15.59;39.89
26859;BME280;14429;48.346;16.338;2023-04-26T09:17:51;99761.09;;;15.54;47.25
26859;BME280;14429;48.346;16.338;2023-04-26T09:20:20;99754.56;;;15.56;47.52
26859;BME280;14429;48.346;16.338;2023-04-26T09:22:46;99763.84;;;15.03;36.48
26859;BME280;14429;48.346;16.338;2023-04-26T09:25:12;99746.22;;;15.30;46.71
26859;BME280;14429;48.346;16.338;2023-04-26T09:27:40;99759.00;;;15.37;45.19
26859;BME280;14429;48.346;16.338;2023-04-26T09:30:08;99745.38;;;14.89;36.55
26859;BME280;14429;48.346;16.338;2023-04-26T09:32:44;99750.34;;;15.34;43.67
26859;BME280;14429;48.346;16.338;2023-04-26T09:35:20;99754.94;;;15.22;39.37
26859;BME280;14429;48.346;16.338;2023-04-26T09:37:50;99751.91;;;15.27;47.18
26859;BME280;14429;48.346;16.338;2023-04-26T09:40:17;99743.75;;;15.17;47.12
26859;BME280;14429;48.346;16.338;2023-04-26T09:42:43;99749.81;;;14.99;40.92
26859;BME280;14429;48.346;16.338;2023-04-26T09:45:09;99746.06;;;14.71;38.29
26859;BME280;14429;48.346;16.338;2023-04-26T09:47:35;99754.16;;;14.91;44.10
26859;BME280;14429;48.346;16.338;2023-04-26T09:50:00;99750.06;;;15.07;48.74
26859;BME280;14429;48.346;16.338;2023-04-26T09:52:27;99761.16;;;15.43;48.41
26859;BME280;14429;48.346;16.338;2023-04-26T09:54:53;99763.66;;;15.15;48.57
26859;BME280;14429;48.346;16.338;2023-04-26T09:57:22;99758.50;;;15.52;49.09
26859;BME280;14429;48.346;16.338;2023-04-26T09:59:49;99766.13;;;15.47;48.93
26859;BME280;14429;48.346;16.338;2023-04-26T10:02:18;99755.19;;;15.39;47.55
26859;BME280;14429;48.346;16.338;2023-04-26T10:04:45;99757.09;;;14.68;46.61
26859;BME280;14429;48.346;16.338;2023-04-26T10:07:11;99757.88;;;15.39;49.17
26859;BME280;14429;48.346;16.338;2023-04-26T10:09:39;99745.06;;;15.52;49.25
26859;BME280;14429;48.346;16.338;2023-04-26T10:12:05;99743.03;;;15.65;48.98
26859;BME280;14429;48.346;16.338;2023-04-26T10:14:30;99742.47;;;15.12;41.27
26859;BME280;14429;48.346;16.338;2023-04-26T10:16:57;99746.22;;;15.30;43.02
26859;BME280;14429;48.346;16.338;2023-04-26T10:19:22;99733.00;;;14.97;38.13
26859;BME280;14429;48.346;16.338;2023-04-26T10:21:50;99735.00;;;15.45;48.22
26859;BME280;14429;48.346;16.338;2023-04-26T10:24:17;99732.78;;;15.59;42.38
26859;BME280;14429;48.346;16.338;2023-04-26T10:26:48;99721.59;;;15.25;37.44
26859;BME280;14429;48.346;16.338;2023-04-26T10:29:14;99719.44;;;15.48;47.94
26859;BME280;14429;48.346;16.338;2023-04-26T10:32:06;99718.94;;;15.63;44.06
26859;BME280;14429;48.346;16.338;2023-04-26T10:34:32;99725.66;;;15.49;47.57
26859;BME280;14429;48.346;16.338;2023-04-26T10:37:09;99734.81;;;14.97;43.52
26859;BME280;14429;48.346;16.338;2023-04-26T10:39:35;99739.41;;;15.26;48.15
26859;BME280;14429;48.346;16.338;2023-04-26T10:42:26;99737.84;;;14.83;39.87
26859;BME280;14429;48.346;16.338;2023-04-26T10:44:52;99732.16;;;14.77;44.50
26859;BME280;14429;48.346;16.338;2023-04-26T10:47:24;99730.41;;;14.86;39.59
26859;BME280;14429;48.346;16.338;2023-04-26T10:49:50;99721.63;;;15.05;39.35
26859;BME280;14429;48.346;16.338;2023-04-26T10:52:17;99728.31;;;14.59;41.04
26859;BME280;14429;48.346;16.338;2023-04-26T10:54:51;99730.50;;;14.65;42.66
26859;BME280;14429;48.346;16.338;2023-04-26T10:57:16;99718.97;;;14.74;40.04
26859;BME280;14429;48.346;16.338;2023-04-26T11:02:52;99717.47;;;14.60;36.52
26859;BME280;14429;48.346;16.338;2023-04-26T11:08:19;99712.94;;;15.12;47.84
26859;BME280;14429;48.346;16.338;2023-04-26T11:10:49;99712.38;;;15.47;48.96
26859;BME280;14429;48.346;16.338;2023-04-26T11:13:15;99704.97;;;15.10;41.68
26859;BME280;14429;48.346;16.338;2023-04-26T11:15:41;99705.75;;;14.41;38.11
26859;BME280;14429;48.346;16.338;2023-04-26T11:18:08;99698.06;;;15.08;48.52
26859;BME280;14429;48.346;16.338;2023-04-26T11:20:33;99689.59;;;15.12;45.26
26859;BME280;14429;48.346;16.338;2023-04-26T11:22:59;99694.97;;;14.72;38.95
26859;BME280;14429;48.346;16.338;2023-04-26T11:25:25;99694.22;;;14.30;38.34
26859;BME280;14429;48.346;16.338;2023-04-26T11:27:51;99699.16;;;14.65;40.62
26859;BME280;14429;48.346;16.338;2023-04-26T11:30:17;99694.94;;;14.52;39.44
26859;BME280;14429;48.346;16.338;2023-04-26T11:32:44;99702.94;;;15.03;44.66
26859;BME280;14429;48.346;16.338;2023-04-26T11:35:11;99692.13;;;15.14;45.73
26859;BME280;14429;48.346;16.338;2023-04-26T11:37:36;99679.59;;;15.04;40.49
26859;BME280;14429;48.346;16.338;2023-04-26T11:40:02;99683.53;;;15.00;37.17
26859;BME280;14429;48.346;16.338;2023-04-26T11:42:28;99682.66;;;14.70;38.10
26859;BME280;14429;48.346;16.338;2023-04-26T11:44:55;99687.31;;;14.68;38.66
26859;BME280;14429;48.346;16.338;2023-04-26T11:47:21;99684.16;;;14.63;38.07
26859;BME280;14429;48.346;16.338;2023-04-26T11:49:47;99683.69;;;14.38;43.14
26859;BME280;14429;48.346;16.338;2023-04-26T11:52:14;99688.72;;;14.31;37.41
26859;BME280;14429;48.346;16.338;2023-04-26T11:54:40;99699.91;;;14.97;49.03
26859;BME280;14429;48.346;16.338;2023-04-26T11:57:12;99700.47;;;15.11;47.89
26859;BME280;14429;48.346;16.338;2023-04-26T11:59:38;99697.78;;;15.11;46.01
26859;BME280;14429;48.346;16.338;2023-04-26T12:02:04;99703.06;;;14.41;37.16
26859;BME280;14429;48.346;16.338;2023-04-26T12:04:30;99698.34;;;14.34;37.76
26859;BME280;14429;48.346;16.338;2023-04-26T12:06:56;99705.34;;;14.46;38.14
26859;BME280;14429;48.346;16.338;2023-04-26T12:09:25;99702.97;;;14.32;37.64
26859;BME280;14429;48.346;16.338;2023-04-26T12:11:56;99697.09;;;14.78;45.38
26859;BME280;14429;48.346;16.338;2023-04-26T12:14:21;99698.22;;;14.96;40.29
26859;BME280;14429;48.346;16.338;2023-04-26T12:16:47;99702.22;;;15.01;43.38
26859;BME280;14429;48.346;16.338;2023-04-26T12:19:12;99695.66;;;15.35;48.69
26859;BME280;14429;48.346;16.338;2023-04-26T12:21:41;99682.13;;;15.55;46.18
26859;BME280;14429;48.346;16.338;2023-04-26T12:24:07;99686.06;;;15.12;39.85
26859;BME280;14429;48.346;16.338;2023-04-26T12:26:42;99687.66;;;15.53;45.05
26859;BME280;14429;48.346;16.338;2023-04-26T12:29:07;99690.09;;;15.27;34.81
26859;BME280;14429;48.346;16.338;2023-04-26T12:31:32;99699.09;;;15.55;38.69
26859;BME280;14429;48.346;16.338;2023-04-26T12:33:58;99685.63;;;15.75;40.74
26859;BME280;14429;48.346;16.338;2023-04-26T12:36:23;99685.47;;;15.77;43.04
26859;BME280;14429;48.346;16.338;2023-04-26T12:38:49;99693.84;;;15.92;43.78
26859;BME280;14429;48.346;16.338;2023-04-26T12:41:14;99697.59;;;15.62;34.53
26859;BME280;14429;48.346;16.338;2023-04-26T12:43:41;99691.28;;;15.82;46.44
26859;BME280;14429;48.346;16.338;2023-04-26T12:46:06;99691.47;;;15.60;35.33
26859;BME280;14429;48.346;16.338;2023-04-26T12:48:32;99687.56;;;15.64;36.03
26859;BME280;14429;48.346;16.338;2023-04-26T12:50:57;99693.09;;;15.72;34.82
26859;BME280;14429;48.346;16.338;2023-04-26T12:53:23;99678.50;;;15.65;37.86
26859;BME280;14429;48.346;16.338;2023-04-26T12:55:48;99684.13;;;15.03;33.13
26859;BME280;14429;48.346;16.338;2023-04-26T12:58:14;99685.16;;;15.32;39.64